createdAt,value
2018-12-12T00:01:55.356Z,7.67
2018-12-12T00:04:22.811Z,8.15
2018-12-12T00:06:50.319Z,8.20
2018-12-12T00:09:17.777Z,8.60
2018-12-12T00:11:45.247Z,9.13
2018-12-12T00:14:12.703Z,9.58
2018-12-12T00:16:40.181Z,7.83
2018-12-12T00:19:07.684Z,8.80
2018-12-12T00:21:35.127Z,8.48
2018-12-12T00:24:02.584Z,8.65
2018-12-12T00:26:30.026Z,8.83
2018-12-12T00:28:57.481Z,9.10
2018-12-12T00:31:24.932Z,8.83
2018-12-12T00:33:52.372Z,8.50
2018-12-12T00:36:19.829Z,8.13
2018-12-12T00:38:47.279Z,8.65
2018-12-12T00:41:14.759Z,8.15
2018-12-12T00:43:42.199Z,8.73
2018-12-12T00:46:09.687Z,10.13
2018-12-12T00:48:37.140Z,10.80
2018-12-12T00:51:04.618Z,11.18
2018-12-12T00:53:32.068Z,12.25
2018-12-12T00:55:59.556Z,12.60
2018-12-12T00:58:27.036Z,12.82
2018-12-12T01:00:54.494Z,12.20
2018-12-12T01:03:21.940Z,11.43
2018-12-12T01:05:49.402Z,11.93
2018-12-12T01:08:16.875Z,11.33
2018-12-12T01:10:44.364Z,12.68
2018-12-12T01:13:11.810Z,14.05
2018-12-12T01:15:39.271Z,14.53
2018-12-12T01:18:06.724Z,15.70
2018-12-12T01:20:34.184Z,17.57
2018-12-12T01:23:01.635Z,15.05
2018-12-12T01:25:29.091Z,13.72
2018-12-12T01:27:56.575Z,14.47
2018-12-12T01:30:24.027Z,13.95
2018-12-12T01:32:51.515Z,13.25
2018-12-12T01:35:18.972Z,12.43
2018-12-12T01:37:46.464Z,11.93
2018-12-12T01:40:13.907Z,14.43
2018-12-12T01:42:41.391Z,13.55
2018-12-12T01:45:08.875Z,13.70
2018-12-12T01:47:36.327Z,16.60
2018-12-12T01:50:04.739Z,18.12
2018-12-12T01:52:32.292Z,17.67
2018-12-12T01:54:59.770Z,16.00
2018-12-12T01:57:27.243Z,18.42
2018-12-12T01:59:54.723Z,14.33
2018-12-12T02:02:22.199Z,16.07
2018-12-12T02:04:49.661Z,14.35
2018-12-12T02:07:17.239Z,13.93
2018-12-12T02:09:44.702Z,12.73
2018-12-12T02:12:12.239Z,13.30
2018-12-12T02:14:39.724Z,13.60
2018-12-12T02:17:07.181Z,13.38
2018-12-12T02:19:34.655Z,12.88
2018-12-12T02:22:02.107Z,12.43
2018-12-12T02:24:29.556Z,12.05
2018-12-12T02:26:57.020Z,12.40
2018-12-12T02:29:24.469Z,13.98
2018-12-12T02:31:51.921Z,14.20
2018-12-12T02:34:19.371Z,15.35
2018-12-12T02:36:46.840Z,14.80
2018-12-12T02:39:14.388Z,13.32
2018-12-12T02:41:41.920Z,12.82
2018-12-12T02:44:09.368Z,12.53
2018-12-12T02:46:36.825Z,13.13
2018-12-12T02:49:04.306Z,13.03
2018-12-12T02:51:31.787Z,12.55
2018-12-12T02:53:59.244Z,13.35
2018-12-12T02:56:26.698Z,13.22
2018-12-12T02:58:54.176Z,11.97
2018-12-12T03:01:21.632Z,12.60
2018-12-12T03:03:49.093Z,12.93
2018-12-12T03:06:16.678Z,13.28
2018-12-12T03:08:44.134Z,13.28
2018-12-12T03:11:13.531Z,12.82
2018-12-12T03:13:40.980Z,12.93
2018-12-12T03:16:08.471Z,12.25
2018-12-12T03:18:35.936Z,11.65
2018-12-12T03:21:03.437Z,12.60
2018-12-12T03:23:30.896Z,12.03
2018-12-12T03:25:58.359Z,11.70
2018-12-12T03:28:25.812Z,11.53
2018-12-12T03:30:53.277Z,10.50
2018-12-12T03:33:20.830Z,11.80
2018-12-12T03:35:48.387Z,11.63
2018-12-12T03:38:15.845Z,11.80
2018-12-12T03:40:43.596Z,11.57
2018-12-12T03:43:11.197Z,11.97
2018-12-12T03:45:38.691Z,10.97
2018-12-12T03:48:06.204Z,11.55
2018-12-12T03:50:33.664Z,11.53
2018-12-12T03:53:01.129Z,11.25
2018-12-12T03:55:28.580Z,10.65
2018-12-12T03:57:56.035Z,10.28
2018-12-12T04:00:23.532Z,11.18
2018-12-12T04:02:51.031Z,10.40
2018-12-12T04:05:18.489Z,10.47
2018-12-12T04:07:46.055Z,10.80
2018-12-12T04:10:13.553Z,9.93
2018-12-12T04:12:41.015Z,10.38
2018-12-12T04:15:08.628Z,10.53
2018-12-12T04:17:36.101Z,9.77
2018-12-12T04:20:05.318Z,8.07
2018-12-12T04:22:32.999Z,8.30
2018-12-12T04:25:00.486Z,7.93
2018-12-12T04:27:27.964Z,7.17
2018-12-12T04:29:55.418Z,7.87
2018-12-12T04:32:22.871Z,8.00
2018-12-12T04:34:50.328Z,7.13
2018-12-12T04:37:17.780Z,6.77
2018-12-12T04:39:45.334Z,7.33
2018-12-12T04:42:12.781Z,8.23
2018-12-12T04:44:40.320Z,7.50
2018-12-12T04:47:07.822Z,7.83
2018-12-12T04:49:35.350Z,7.47
2018-12-12T04:52:02.799Z,7.90
2018-12-12T04:54:30.248Z,9.97
2018-12-12T04:56:57.707Z,10.50
2018-12-12T04:59:25.276Z,9.07
2018-12-12T05:01:52.738Z,10.80
2018-12-12T05:04:20.182Z,9.63
2018-12-12T05:06:47.693Z,9.73
2018-12-12T05:09:15.139Z,10.30
2018-12-12T05:11:42.591Z,9.57
2018-12-12T05:14:10.052Z,9.23
2018-12-12T05:16:37.536Z,10.53
2018-12-12T05:19:05.021Z,10.10
2018-12-12T05:21:32.480Z,11.13
2018-12-12T05:23:59.932Z,11.77
2018-12-12T05:26:27.379Z,11.20
2018-12-12T05:28:54.841Z,11.27
2018-12-12T05:31:22.296Z,11.43
2018-12-12T05:33:49.792Z,9.63
2018-12-12T05:36:17.284Z,9.23
2018-12-12T05:38:44.732Z,8.80
2018-12-12T05:41:12.280Z,10.00
2018-12-12T05:43:39.751Z,9.30
2018-12-12T05:46:07.325Z,10.20
2018-12-12T05:48:34.816Z,13.08
2018-12-12T05:51:02.293Z,12.30
2018-12-12T05:53:29.739Z,10.88
2018-12-12T05:56:02.404Z,17.70
2018-12-12T05:58:26.755Z,14.20
2018-12-12T06:00:54.480Z,9.55
2018-12-12T06:03:22.097Z,8.88
2018-12-12T06:05:49.551Z,9.25
2018-12-12T06:08:17.861Z,9.98
2018-12-12T06:10:45.408Z,9.05
2018-12-12T06:13:12.881Z,10.37
2018-12-12T06:15:40.375Z,9.93
2018-12-12T06:18:07.865Z,9.97
2018-12-12T06:20:35.367Z,9.20
2018-12-12T06:23:02.948Z,10.43
2018-12-12T06:25:30.427Z,10.53
2018-12-12T06:27:57.896Z,9.87
2018-12-12T06:30:25.457Z,9.53
2018-12-12T06:32:52.968Z,9.33
2018-12-12T06:35:20.421Z,9.93
2018-12-12T06:37:47.864Z,10.10
2018-12-12T06:40:15.342Z,9.87
2018-12-12T06:42:42.784Z,9.90
2018-12-12T06:45:10.275Z,8.83
2018-12-12T06:47:37.982Z,9.17
2018-12-12T06:50:06.058Z,9.63
2018-12-12T06:52:33.495Z,9.53
2018-12-12T06:55:00.949Z,8.90
2018-12-12T06:57:28.404Z,8.70
2018-12-12T06:59:55.936Z,9.50
2018-12-12T07:02:23.391Z,9.60
2018-12-12T07:04:50.928Z,10.50
2018-12-12T07:07:18.620Z,11.57
2018-12-12T07:09:46.073Z,11.37
2018-12-12T07:12:13.709Z,11.37
2018-12-12T07:14:41.146Z,10.90
2018-12-12T07:17:08.635Z,11.77
2018-12-12T07:19:36.108Z,10.90
2018-12-12T07:22:03.636Z,11.27
2018-12-12T07:24:31.097Z,11.27
2018-12-12T07:26:58.556Z,10.60
2018-12-12T07:29:26.015Z,10.03
2018-12-12T07:31:53.526Z,11.20
2018-12-12T07:34:20.969Z,10.33
2018-12-12T07:36:48.412Z,9.93
2018-12-12T07:39:18.050Z,9.17
2018-12-12T07:41:45.365Z,10.40
2018-12-12T07:44:12.845Z,10.47
2018-12-12T07:46:40.324Z,10.50
2018-12-12T07:49:07.895Z,11.13
2018-12-12T07:51:35.503Z,10.83
2018-12-12T07:54:02.995Z,10.90
2018-12-12T07:56:30.472Z,10.47
2018-12-12T07:58:57.935Z,11.67
2018-12-12T08:01:25.461Z,11.43
2018-12-12T08:03:52.917Z,11.00
2018-12-12T08:06:20.363Z,11.10
2018-12-12T08:08:47.847Z,10.57
2018-12-12T08:11:15.300Z,11.23
2018-12-12T08:13:42.833Z,10.93
2018-12-12T08:16:10.311Z,10.67
2018-12-12T08:18:37.800Z,9.80
2018-12-12T08:21:05.296Z,9.77
2018-12-12T08:23:32.936Z,10.23
2018-12-12T08:26:00.495Z,9.83
2018-12-12T08:28:27.941Z,9.77
2018-12-12T08:30:55.428Z,10.63
2018-12-12T08:33:22.961Z,10.60
2018-12-12T08:35:50.437Z,10.80
2018-12-12T08:38:17.891Z,10.27
2018-12-12T08:40:45.436Z,9.57
2018-12-12T08:43:12.932Z,10.23
2018-12-12T08:45:40.385Z,10.17
2018-12-12T08:48:07.867Z,9.93
2018-12-12T08:50:35.307Z,9.87
2018-12-12T08:53:02.983Z,9.73
2018-12-12T08:55:30.441Z,9.23
2018-12-12T08:57:57.880Z,9.80
2018-12-12T09:00:25.320Z,9.23
2018-12-12T09:02:52.847Z,9.20
2018-12-12T09:05:20.359Z,9.93
2018-12-12T09:07:47.886Z,9.10
2018-12-12T09:10:15.357Z,9.50
2018-12-12T09:12:42.839Z,9.40
2018-12-12T09:15:10.283Z,9.13
2018-12-12T09:17:37.733Z,8.37
2018-12-12T09:20:05.257Z,9.30
2018-12-12T09:22:32.764Z,9.43
2018-12-12T09:25:00.251Z,8.83
2018-12-12T09:27:27.696Z,9.00
2018-12-12T09:29:55.161Z,9.33
2018-12-12T09:32:22.610Z,9.27
2018-12-12T09:34:50.065Z,9.70
2018-12-12T09:37:17.546Z,9.90
2018-12-12T09:39:45.003Z,9.10
2018-12-12T09:42:12.481Z,10.27
2018-12-12T09:44:39.933Z,9.47
2018-12-12T09:47:07.425Z,9.30
2018-12-12T09:49:34.880Z,9.83
2018-12-12T09:52:02.382Z,10.93
2018-12-12T09:54:29.921Z,9.53
2018-12-12T09:56:57.383Z,10.70
2018-12-12T09:59:24.961Z,11.20
2018-12-12T10:01:52.436Z,10.93
2018-12-12T10:04:19.897Z,10.53
2018-12-12T10:06:47.336Z,11.33
2018-12-12T10:09:14.797Z,11.10
2018-12-12T10:11:42.253Z,11.57
2018-12-12T10:14:09.704Z,10.97
2018-12-12T10:16:37.282Z,11.17
2018-12-12T10:19:04.732Z,12.60
2018-12-12T10:21:32.186Z,12.47
2018-12-12T10:23:59.657Z,13.23
2018-12-12T10:26:27.112Z,13.67
2018-12-12T10:28:55.621Z,12.77
2018-12-12T10:31:23.088Z,13.50
2018-12-12T10:33:50.547Z,13.10
2018-12-12T10:36:17.979Z,13.80
2018-12-12T10:38:45.428Z,14.73
2018-12-12T10:41:12.980Z,14.93
2018-12-12T10:43:40.446Z,14.57
2018-12-12T10:46:08.000Z,14.23
2018-12-12T10:48:36.672Z,13.93
2018-12-12T10:51:04.112Z,13.83
2018-12-12T10:53:31.577Z,14.10
2018-12-12T10:55:59.091Z,16.00
2018-12-12T10:58:26.547Z,14.67
2018-12-12T11:04:02.065Z,18.67
2018-12-12T11:06:29.527Z,22.33
2018-12-12T11:08:56.972Z,20.13
2018-12-12T11:11:24.459Z,20.23
2018-12-12T11:13:51.907Z,22.30
2018-12-12T11:16:19.351Z,23.63
2018-12-12T11:18:46.847Z,22.43
2018-12-12T11:21:14.302Z,21.83
2018-12-12T11:23:41.766Z,23.80
2018-12-12T11:26:09.245Z,21.67
2018-12-12T11:28:36.691Z,19.70
2018-12-12T11:31:04.141Z,20.63
2018-12-12T11:33:31.581Z,21.97
2018-12-12T11:35:59.023Z,23.50
2018-12-12T11:38:26.535Z,22.43
2018-12-12T11:40:53.989Z,19.83
2018-12-12T11:43:21.716Z,18.70
2018-12-12T11:45:49.187Z,19.80
2018-12-12T11:48:16.622Z,19.50
2018-12-12T11:50:44.102Z,19.57
2018-12-12T11:53:11.551Z,20.87
2018-12-12T11:55:39.013Z,18.73
2018-12-12T11:58:06.465Z,18.67
2018-12-12T12:00:33.992Z,19.90
2018-12-12T12:03:01.453Z,19.17
2018-12-12T12:05:28.908Z,25.57
2018-12-12T12:07:56.360Z,16.37
2018-12-12T12:10:23.845Z,17.60
2018-12-12T12:12:51.289Z,29.27
2018-12-12T12:15:18.735Z,15.03
2018-12-12T12:17:46.206Z,14.83
2018-12-12T12:20:13.653Z,15.63
2018-12-12T12:22:41.108Z,15.30
2018-12-12T12:25:08.578Z,14.93
2018-12-12T12:27:36.048Z,15.73
2018-12-12T12:30:04.664Z,15.40
2018-12-12T12:32:32.122Z,14.93
2018-12-12T12:35:00.237Z,13.43
2018-12-12T12:37:27.890Z,11.90
2018-12-12T12:39:55.327Z,10.77
2018-12-12T12:42:22.781Z,10.23
2018-12-12T12:44:50.230Z,10.97
2018-12-12T12:47:17.678Z,13.23
2018-12-12T12:49:45.143Z,18.30
2018-12-12T12:52:12.599Z,15.97
2018-12-12T12:54:40.052Z,13.80
2018-12-12T12:57:07.492Z,13.40
2018-12-12T12:59:34.940Z,19.10
2018-12-12T13:02:02.496Z,25.20
2018-12-12T13:04:29.964Z,14.10
2018-12-12T13:06:57.412Z,14.87
2018-12-12T13:09:24.869Z,12.37
2018-12-12T13:11:52.363Z,12.80
2018-12-12T13:14:19.876Z,12.00
2018-12-12T13:16:47.317Z,11.17
2018-12-12T13:19:14.764Z,11.30
2018-12-12T13:21:42.245Z,11.27
2018-12-12T13:24:09.688Z,11.33
2018-12-12T13:26:37.173Z,12.00
2018-12-12T13:29:04.615Z,10.73
2018-12-12T13:31:32.064Z,11.63
2018-12-12T13:33:59.507Z,10.90
2018-12-12T13:36:26.983Z,11.77
2018-12-12T13:38:54.436Z,11.03
2018-12-12T13:41:21.889Z,10.97
2018-12-12T13:43:49.332Z,11.20
2018-12-12T13:46:16.771Z,10.70
2018-12-12T13:48:44.251Z,10.17
2018-12-12T13:51:11.716Z,10.53
2018-12-12T13:53:39.166Z,10.70
2018-12-12T13:56:06.610Z,11.57
2018-12-12T13:58:34.082Z,10.20
2018-12-12T14:01:01.614Z,11.07
2018-12-12T14:03:29.077Z,11.73
2018-12-12T14:05:56.550Z,11.00
2018-12-12T14:08:23.992Z,10.40
2018-12-12T14:10:51.463Z,10.07
2018-12-12T14:13:18.931Z,10.80
2018-12-12T14:15:46.384Z,10.87
2018-12-12T14:18:13.841Z,11.60
2018-12-12T14:20:41.332Z,12.43
2018-12-12T14:23:08.776Z,14.70
2018-12-12T14:25:36.222Z,14.27
2018-12-12T14:28:03.693Z,11.90
2018-12-12T14:30:31.187Z,10.50
2018-12-12T14:32:58.663Z,11.23
2018-12-12T14:35:26.163Z,11.43
2018-12-12T14:37:53.608Z,11.77
2018-12-12T14:40:21.079Z,10.83
2018-12-12T14:42:48.556Z,10.27
2018-12-12T14:45:16.016Z,10.70
2018-12-12T14:47:43.463Z,11.50
2018-12-12T14:50:10.932Z,11.60
2018-12-12T14:52:38.383Z,14.77
2018-12-12T14:55:05.879Z,15.67
2018-12-12T14:57:33.348Z,12.27
2018-12-12T15:00:00.803Z,15.10
2018-12-12T15:02:28.253Z,14.60
2018-12-12T15:04:55.725Z,11.80
2018-12-12T15:07:23.168Z,12.63
2018-12-12T15:09:50.607Z,13.37
2018-12-12T15:12:18.064Z,13.20
2018-12-12T15:14:45.499Z,12.77
2018-12-12T15:17:12.954Z,11.50
2018-12-12T15:19:40.395Z,15.20
2018-12-12T15:22:07.851Z,12.53
2018-12-12T15:24:35.559Z,14.07
2018-12-12T15:27:03.206Z,12.57
2018-12-12T15:29:30.657Z,13.60
2018-12-12T15:31:58.137Z,13.07
2018-12-12T15:34:25.588Z,13.90
2018-12-12T15:36:53.033Z,13.17
2018-12-12T15:39:20.483Z,13.57
2018-12-12T15:41:47.936Z,13.13
2018-12-12T15:44:15.431Z,15.57
2018-12-12T15:46:42.890Z,13.57
2018-12-12T15:49:10.392Z,14.83
2018-12-12T15:51:37.872Z,13.57
2018-12-12T15:54:05.341Z,16.07
2018-12-12T15:56:32.799Z,27.47
2018-12-12T15:59:00.243Z,18.13
2018-12-12T16:01:27.832Z,19.53
2018-12-12T16:03:55.288Z,21.20
2018-12-12T16:06:22.800Z,16.90
2018-12-12T16:08:50.276Z,15.77
2018-12-12T16:11:17.803Z,19.03
2018-12-12T16:13:45.255Z,14.63
2018-12-12T16:16:12.790Z,13.77
2018-12-12T16:18:40.231Z,15.60
2018-12-12T16:21:07.710Z,16.43
2018-12-12T16:23:35.152Z,15.20
2018-12-12T16:26:02.609Z,15.93
2018-12-12T16:28:30.058Z,17.57
2018-12-12T16:30:57.509Z,16.60
2018-12-12T16:33:24.953Z,21.23
2018-12-12T16:35:52.432Z,17.03
2018-12-12T16:38:19.880Z,15.23
2018-12-12T16:40:47.324Z,26.10
2018-12-12T16:43:14.772Z,17.03
2018-12-12T16:45:42.228Z,17.37
2018-12-12T16:48:09.700Z,15.73
2018-12-12T16:50:37.182Z,17.33
2018-12-12T16:53:04.630Z,15.40
2018-12-12T16:55:32.071Z,16.13
2018-12-12T16:57:59.521Z,16.37
2018-12-12T17:00:26.990Z,14.93
2018-12-12T17:02:54.439Z,15.20
2018-12-12T17:05:21.879Z,15.87
2018-12-12T17:07:49.336Z,14.97
2018-12-12T17:10:16.772Z,16.13
2018-12-12T17:12:44.224Z,17.73
2018-12-12T17:15:11.701Z,17.03
2018-12-12T17:17:39.150Z,15.97
2018-12-12T17:20:07.029Z,15.63
2018-12-12T17:22:34.513Z,15.87
2018-12-12T17:25:01.988Z,16.27
2018-12-12T17:27:29.499Z,17.33
2018-12-12T17:29:56.965Z,15.60
2018-12-12T17:32:24.403Z,16.13
2018-12-12T17:34:51.839Z,18.37
2018-12-12T17:37:19.281Z,16.10
2018-12-12T17:39:46.775Z,17.43
2018-12-12T17:42:14.233Z,16.07
2018-12-12T17:44:41.681Z,16.03
2018-12-12T17:47:09.120Z,18.20
2018-12-12T17:49:36.564Z,16.63
2018-12-12T17:52:04.037Z,17.67
2018-12-12T17:54:31.479Z,16.80
2018-12-12T17:56:58.942Z,19.20
2018-12-12T17:59:26.388Z,17.50
2018-12-12T18:01:53.888Z,17.17
2018-12-12T18:04:21.337Z,16.93
2018-12-12T18:06:48.820Z,16.50
2018-12-12T18:09:16.275Z,16.67
2018-12-12T18:11:43.752Z,15.43
2018-12-12T18:14:11.275Z,16.03
2018-12-12T18:16:38.717Z,15.60
2018-12-12T18:19:06.173Z,15.53
2018-12-12T18:21:33.640Z,17.60
2018-12-12T18:24:01.085Z,18.37
2018-12-12T18:26:28.531Z,20.17
2018-12-12T18:28:56.013Z,21.83
2018-12-12T18:31:23.447Z,20.60
2018-12-12T18:33:50.954Z,18.53
2018-12-12T18:36:18.417Z,22.13
2018-12-12T18:38:45.974Z,21.20
2018-12-12T18:41:13.434Z,25.63
2018-12-12T18:43:40.915Z,21.40
2018-12-12T18:46:08.399Z,17.57
2018-12-12T18:48:35.862Z,18.30
2018-12-12T18:51:03.343Z,18.83
2018-12-12T18:53:30.794Z,19.20
2018-12-12T18:55:58.307Z,18.43
2018-12-12T18:58:25.909Z,15.13
2018-12-12T19:00:53.472Z,17.10
2018-12-12T19:03:20.925Z,15.67
2018-12-12T19:05:48.381Z,15.53
2018-12-12T19:08:15.860Z,15.50
2018-12-12T19:10:43.326Z,12.80
2018-12-12T19:13:10.763Z,13.07
2018-12-12T19:15:38.210Z,13.10
2018-12-12T19:18:05.688Z,11.87
2018-12-12T19:20:33.144Z,13.57
2018-12-12T19:23:00.639Z,12.23
2018-12-12T19:25:28.108Z,13.00
2018-12-12T19:27:55.587Z,10.30
2018-12-12T19:30:23.064Z,12.57
2018-12-12T19:32:51.182Z,10.60
2018-12-12T19:35:18.808Z,11.67
2018-12-12T19:37:46.263Z,10.67
2018-12-12T19:40:13.709Z,9.23
2018-12-12T19:42:41.172Z,9.90
2018-12-12T19:45:08.655Z,9.83
2018-12-12T19:47:36.101Z,10.37
2018-12-12T19:50:04.084Z,9.67
2018-12-12T19:52:31.524Z,12.50
2018-12-12T19:54:58.978Z,10.00
2018-12-12T19:57:26.422Z,9.70
2018-12-12T19:59:53.869Z,9.70
2018-12-12T20:02:21.365Z,9.27
2018-12-12T20:04:48.809Z,8.00
2018-12-12T20:07:16.272Z,8.50
2018-12-12T20:09:43.737Z,8.33
2018-12-12T20:12:11.208Z,7.77
2018-12-12T20:14:38.656Z,7.53
2018-12-12T20:17:06.132Z,7.97
2018-12-12T20:19:33.632Z,8.50
2018-12-12T20:22:01.063Z,8.80
2018-12-12T20:24:28.521Z,9.50
2018-12-12T20:26:55.984Z,9.80
2018-12-12T20:29:23.432Z,8.40
2018-12-12T20:31:50.967Z,8.03
2018-12-12T20:34:18.411Z,9.07
2018-12-12T20:36:45.851Z,7.87
2018-12-12T20:39:13.299Z,7.13
2018-12-12T20:41:40.734Z,7.10
2018-12-12T20:44:08.207Z,6.40
2018-12-12T20:46:35.637Z,6.13
2018-12-12T20:49:03.080Z,5.73
2018-12-12T20:51:30.522Z,5.80
2018-12-12T20:53:57.992Z,6.43
2018-12-12T20:56:25.455Z,6.70
2018-12-12T20:58:52.916Z,6.23
2018-12-12T21:01:20.348Z,5.73
2018-12-12T21:03:47.887Z,5.83
2018-12-12T21:06:15.357Z,6.50
2018-12-12T21:08:42.785Z,6.20
2018-12-12T21:11:10.268Z,5.80
2018-12-12T21:13:37.738Z,5.92
2018-12-12T21:16:05.241Z,6.43
2018-12-12T21:18:32.680Z,7.23
2018-12-12T21:21:00.198Z,5.57
2018-12-12T21:23:27.632Z,6.50
2018-12-12T21:25:55.102Z,6.53
2018-12-12T21:28:22.542Z,6.10
2018-12-12T21:30:49.998Z,6.63
2018-12-12T21:33:17.477Z,6.35
2018-12-12T21:35:44.935Z,6.05
2018-12-12T21:38:12.371Z,7.03
2018-12-12T21:40:39.828Z,5.87
2018-12-12T21:43:07.335Z,6.55
2018-12-12T21:45:34.775Z,6.07
2018-12-12T21:48:02.243Z,6.13
2018-12-12T21:50:29.710Z,6.40
2018-12-12T21:52:57.161Z,6.90
2018-12-12T21:55:24.623Z,5.73
2018-12-12T21:57:52.073Z,6.35
2018-12-12T22:00:19.532Z,6.25
2018-12-12T22:02:46.980Z,5.90
2018-12-12T22:05:14.485Z,6.70
2018-12-12T22:07:41.937Z,6.92
2018-12-12T22:10:09.449Z,7.20
2018-12-12T22:12:36.905Z,6.72
2018-12-12T22:15:05.091Z,8.00
2018-12-12T22:17:32.548Z,6.95
2018-12-12T22:20:00.004Z,6.55
2018-12-12T22:22:27.462Z,7.17
2018-12-12T22:24:55.010Z,6.70
2018-12-12T22:27:22.436Z,6.65
2018-12-12T22:29:49.891Z,6.60
2018-12-12T22:32:17.327Z,7.30
2018-12-12T22:34:44.806Z,7.03
2018-12-12T22:37:12.236Z,6.92
2018-12-12T22:39:39.680Z,7.97
2018-12-12T22:42:07.142Z,7.20
2018-12-12T22:44:34.608Z,8.08
2018-12-12T22:47:02.047Z,7.53
2018-12-12T22:49:29.495Z,8.15
2018-12-12T22:51:56.947Z,8.60
2018-12-12T22:54:24.388Z,8.63
2018-12-12T22:56:52.517Z,8.58
2018-12-12T22:59:19.963Z,8.13
2018-12-12T23:01:47.530Z,8.03
2018-12-12T23:04:15.016Z,8.80
2018-12-12T23:06:42.567Z,8.50
2018-12-12T23:09:09.989Z,8.53
2018-12-12T23:11:37.501Z,8.88
2018-12-12T23:14:05.019Z,8.68
2018-12-12T23:16:32.483Z,9.00
2018-12-12T23:18:59.937Z,9.98
2018-12-12T23:21:27.430Z,9.93
2018-12-12T23:23:54.951Z,9.18
2018-12-12T23:26:22.442Z,8.85
2018-12-12T23:28:49.896Z,8.80
2018-12-12T23:31:17.857Z,8.60
2018-12-12T23:36:19.159Z,8.53
2018-12-12T23:38:46.685Z,9.48
2018-12-12T23:41:14.155Z,9.10
2018-12-12T23:43:41.596Z,8.43
2018-12-12T23:46:09.055Z,8.93
2018-12-12T23:48:36.507Z,8.63
2018-12-12T23:51:03.954Z,9.10
2018-12-12T23:53:31.397Z,10.23
2018-12-12T23:55:58.891Z,9.55
2018-12-12T23:58:26.340Z,9.50
